sensor_id;sensor_type;location;lat;lon;timestamp;temperature;humidity
17671;DHT22;8954;48.694;8.940;2023-02-03T00:01:21;4.90;99.90
17671;DHT22;8954;48.694;8.940;2023-02-03T00:03:47;5.00;99.90
17671;DHT22;8954;48.694;8.940;2023-02-03T00:06:13;4.90;99.90
17671;DHT22;8954;48.694;8.940;2023-02-03T00:08:39;4.80;99.90
17671;DHT22;8954;48.694;8.940;2023-02-03T00:11:05;5.00;99.90
17671;DHT22;8954;48.694;8.940;2023-02-03T00:13:31;4.90;99.90
17671;DHT22;8954;48.694;8.940;2023-02-03T00:15:56;4.90;99.90
17671;DHT22;8954;48.694;8.940;2023-02-03T00:18:22;4.90;99.90
17671;DHT22;8954;48.694;8.940;2023-02-03T00:20:47;4.80;99.90
17671;DHT22;8954;48.694;8.940;2023-02-03T00:23:13;4.80;99.90
17671;DHT22;8954;48.694;8.940;2023-02-03T00:25:39;4.70;99.90
17671;DHT22;8954;48.694;8.940;2023-02-03T00:28:05;4.80;99.90
17671;DHT22;8954;48.694;8.940;2023-02-03T00:30:33;4.70;99.90
17671;DHT22;8954;48.694;8.940;2023-02-03T00:33:00;4.60;99.90
17671;DHT22;8954;48.694;8.940;2023-02-03T00:35:26;4.70;99.90
17671;DHT22;8954;48.694;8.940;2023-02-03T00:37:55;4.70;99.90
17671;DHT22;8954;48.694;8.940;2023-02-03T00:40:23;4.60;99.90
17671;DHT22;8954;48.694;8.940;2023-02-03T00:42:49;4.70;99.90
17671;DHT22;8954;48.694;8.940;2023-02-03T00:45:15;4.60;99.90
17671;DHT22;8954;48.694;8.940;2023-02-03T00:47:41;4.60;99.90
17671;DHT22;8954;48.694;8.940;2023-02-03T00:50:07;4.60;99.90
17671;DHT22;8954;48.694;8.940;2023-02-03T00:52:33;4.70;99.90
17671;DHT22;8954;48.694;8.940;2023-02-03T00:54:59;4.60;99.90
17671;DHT22;8954;48.694;8.940;2023-02-03T00:57:24;4.70;99.90
17671;DHT22;8954;48.694;8.940;2023-02-03T00:59:50;4.60;99.90
17671;DHT22;8954;48.694;8.940;2023-02-03T01:02:15;4.70;99.90
17671;DHT22;8954;48.694;8.940;2023-02-03T01:04:42;4.70;99.90
17671;DHT22;8954;48.694;8.940;2023-02-03T01:07:08;4.70;99.90
17671;DHT22;8954;48.694;8.940;2023-02-03T01:09:35;4.70;99.90
17671;DHT22;8954;48.694;8.940;2023-02-03T01:12:00;4.90;99.90
17671;DHT22;8954;48.694;8.940;2023-02-03T01:14:26;5.00;99.90
17671;DHT22;8954;48.694;8.940;2023-02-03T01:16:52;5.00;99.90
17671;DHT22;8954;48.694;8.940;2023-02-03T01:19:17;5.00;99.90
17671;DHT22;8954;48.694;8.940;2023-02-03T01:21:43;5.10;99.90
17671;DHT22;8954;48.694;8.940;2023-02-03T01:24:08;5.10;99.90
17671;DHT22;8954;48.694;8.940;2023-02-03T01:26:34;5.10;99.90
17671;DHT22;8954;48.694;8.940;2023-02-03T01:29:01;5.20;99.90
17671;DHT22;8954;48.694;8.940;2023-02-03T01:31:29;5.00;99.90
17671;DHT22;8954;48.694;8.940;2023-02-03T01:33:55;5.10;99.90
17671;DHT22;8954;48.694;8.940;2023-02-03T01:36:23;5.00;99.90
17671;DHT22;8954;48.694;8.940;2023-02-03T01:38:49;5.10;99.90
17671;DHT22;8954;48.694;8.940;2023-02-03T01:41:18;5.10;99.90
17671;DHT22;8954;48.694;8.940;2023-02-03T01:43:48;5.20;99.90
17671;DHT22;8954;48.694;8.940;2023-02-03T01:46:36;5.10;99.90
17671;DHT22;8954;48.694;8.940;2023-02-03T01:49:12;5.20;99.90
17671;DHT22;8954;48.694;8.940;2023-02-03T01:51:41;5.10;99.90
17671;DHT22;8954;48.694;8.940;2023-02-03T01:54:14;5.20;99.90
17671;DHT22;8954;48.694;8.940;2023-02-03T01:56:44;5.30;99.90
17671;DHT22;8954;48.694;8.940;2023-02-03T01:59:11;5.20;99.90
17671;DHT22;8954;48.694;8.940;2023-02-03T02:01:39;5.20;99.90
17671;DHT22;8954;48.694;8.940;2023-02-03T02:04:05;5.20;99.90
17671;DHT22;8954;48.694;8.940;2023-02-03T02:06:30;5.20;99.90
17671;DHT22;8954;48.694;8.940;2023-02-03T02:08:57;5.10;99.90
17671;DHT22;8954;48.694;8.940;2023-02-03T02:11:25;5.20;99.90
17671;DHT22;8954;48.694;8.940;2023-02-03T02:13:52;5.20;99.90
17671;DHT22;8954;48.694;8.940;2023-02-03T02:16:44;5.20;99.90
17671;DHT22;8954;48.694;8.940;2023-02-03T02:41:09;5.00;99.90
17671;DHT22;8954;48.694;8.940;2023-02-03T02:43:41;5.10;99.90
17671;DHT22;8954;48.694;8.940;2023-02-03T02:46:12;5.10;99.90
17671;DHT22;8954;48.694;8.940;2023-02-03T02:48:54;5.20;99.90
17671;DHT22;8954;48.694;8.940;2023-02-03T02:51:22;5.10;99.90
17671;DHT22;8954;48.694;8.940;2023-02-03T02:53:54;5.10;99.90
17671;DHT22;8954;48.694;8.940;2023-02-03T02:56:21;5.20;99.90
17671;DHT22;8954;48.694;8.940;2023-02-03T02:58:48;5.20;99.90
17671;DHT22;8954;48.694;8.940;2023-02-03T03:01:15;5.30;99.90
17671;DHT22;8954;48.694;8.940;2023-02-03T03:03:42;5.20;99.90
17671;DHT22;8954;48.694;8.940;2023-02-03T03:06:21;5.30;99.90
17671;DHT22;8954;48.694;8.940;2023-02-03T03:09:00;5.40;99.90
17671;DHT22;8954;48.694;8.940;2023-02-03T03:11:36;5.40;99.90
17671;DHT22;8954;48.694;8.940;2023-02-03T03:14:04;5.30;99.90
17671;DHT22;8954;48.694;8.940;2023-02-03T03:16:33;5.30;99.90
17671;DHT22;8954;48.694;8.940;2023-02-03T03:19:04;5.30;99.90
17671;DHT22;8954;48.694;8.940;2023-02-03T03:21:44;5.30;99.90
17671;DHT22;8954;48.694;8.940;2023-02-03T03:24:14;5.10;99.90
17671;DHT22;8954;48.694;8.940;2023-02-03T03:26:56;5.20;99.90
17671;DHT22;8954;48.694;8.940;2023-02-03T03:29:34;5.10;99.90
17671;DHT22;8954;48.694;8.940;2023-02-03T03:32:01;5.10;99.90
17671;DHT22;8954;48.694;8.940;2023-02-03T03:34:27;5.00;99.90
17671;DHT22;8954;48.694;8.940;2023-02-03T03:39:52;5.10;99.90
17671;DHT22;8954;48.694;8.940;2023-02-03T03:50:27;5.20;99.90
17671;DHT22;8954;48.694;8.940;2023-02-03T03:52:55;5.30;99.90
17671;DHT22;8954;48.694;8.940;2023-02-03T03:55:22;5.20;99.90
17671;DHT22;8954;48.694;8.940;2023-02-03T03:58:06;5.30;99.90
17671;DHT22;8954;48.694;8.940;2023-02-03T04:00:34;5.20;99.90
17671;DHT22;8954;48.694;8.940;2023-02-03T04:03:39;5.10;99.90
17671;DHT22;8954;48.694;8.940;2023-02-03T04:05:58;5.10;99.90
17671;DHT22;8954;48.694;8.940;2023-02-03T04:08:23;5.20;99.90
17671;DHT22;8954;48.694;8.940;2023-02-03T04:10:49;5.30;99.90
17671;DHT22;8954;48.694;8.940;2023-02-03T04:13:14;5.30;99.90
17671;DHT22;8954;48.694;8.940;2023-02-03T04:15:40;5.40;99.90
17671;DHT22;8954;48.694;8.940;2023-02-03T04:18:06;5.30;99.90
17671;DHT22;8954;48.694;8.940;2023-02-03T04:20:32;5.30;99.90
17671;DHT22;8954;48.694;8.940;2023-02-03T04:22:58;5.20;99.90
17671;DHT22;8954;48.694;8.940;2023-02-03T04:25:24;5.20;99.90
17671;DHT22;8954;48.694;8.940;2023-02-03T04:27:49;5.20;99.90
17671;DHT22;8954;48.694;8.940;2023-02-03T04:30:15;5.20;99.90
17671;DHT22;8954;48.694;8.940;2023-02-03T04:32:43;5.10;99.90
17671;DHT22;8954;48.694;8.940;2023-02-03T04:35:09;5.10;99.90
17671;DHT22;8954;48.694;8.940;2023-02-03T04:37:34;5.20;99.90
17671;DHT22;8954;48.694;8.940;2023-02-03T04:40:00;5.10;99.90
17671;DHT22;8954;48.694;8.940;2023-02-03T04:42:25;5.20;99.90
17671;DHT22;8954;48.694;8.940;2023-02-03T04:44:51;5.10;99.90
17671;DHT22;8954;48.694;8.940;2023-02-03T04:47:18;5.10;99.90
17671;DHT22;8954;48.694;8.940;2023-02-03T04:49:44;5.20;99.90
17671;DHT22;8954;48.694;8.940;2023-02-03T04:52:10;5.10;99.90
17671;DHT22;8954;48.694;8.940;2023-02-03T04:54:36;5.30;99.90
17671;DHT22;8954;48.694;8.940;2023-02-03T04:57:02;5.40;99.90
17671;DHT22;8954;48.694;8.940;2023-02-03T04:59:28;5.20;99.90
17671;DHT22;8954;48.694;8.940;2023-02-03T05:01:53;5.20;99.90
17671;DHT22;8954;48.694;8.940;2023-02-03T05:04:19;5.30;99.90
17671;DHT22;8954;48.694;8.940;2023-02-03T05:06:45;5.20;99.90
17671;DHT22;8954;48.694;8.940;2023-02-03T05:09:10;5.20;99.90
17671;DHT22;8954;48.694;8.940;2023-02-03T05:11:36;5.30;99.90
17671;DHT22;8954;48.694;8.940;2023-02-03T05:14:01;5.20;99.90
17671;DHT22;8954;48.694;8.940;2023-02-03T05:16:27;5.20;99.90
17671;DHT22;8954;48.694;8.940;2023-02-03T05:18:52;5.10;99.90
17671;DHT22;8954;48.694;8.940;2023-02-03T05:21:18;5.10;99.90
17671;DHT22;8954;48.694;8.940;2023-02-03T05:23:43;5.00;99.90
17671;DHT22;8954;48.694;8.940;2023-02-03T05:26:09;5.10;99.90
17671;DHT22;8954;48.694;8.940;2023-02-03T05:28:35;5.20;99.90
17671;DHT22;8954;48.694;8.940;2023-02-03T05:31:01;5.20;99.90
17671;DHT22;8954;48.694;8.940;2023-02-03T05:33:28;5.20;99.90
17671;DHT22;8954;48.694;8.940;2023-02-03T05:35:53;5.20;99.90
17671;DHT22;8954;48.694;8.940;2023-02-03T05:38:19;5.20;99.90
17671;DHT22;8954;48.694;8.940;2023-02-03T05:40:48;5.30;99.90
17671;DHT22;8954;48.694;8.940;2023-02-03T05:43:33;5.20;99.90
17671;DHT22;8954;48.694;8.940;2023-02-03T05:46:06;5.20;99.90
17671;DHT22;8954;48.694;8.940;2023-02-03T05:48:32;5.10;99.90
17671;DHT22;8954;48.694;8.940;2023-02-03T05:50:58;5.10;99.90
17671;DHT22;8954;48.694;8.940;2023-02-03T05:53:25;5.10;99.90
17671;DHT22;8954;48.694;8.940;2023-02-03T05:55:51;5.10;99.90
17671;DHT22;8954;48.694;8.940;2023-02-03T05:58:17;5.20;99.90
17671;DHT22;8954;48.694;8.940;2023-02-03T06:00:43;5.20;99.90
17671;DHT22;8954;48.694;8.940;2023-02-03T06:03:08;5.10;99.90
17671;DHT22;8954;48.694;8.940;2023-02-03T06:05:35;5.10;99.90
17671;DHT22;8954;48.694;8.940;2023-02-03T06:08:05;5.20;99.90
17671;DHT22;8954;48.694;8.940;2023-02-03T06:10:31;5.20;99.90
17671;DHT22;8954;48.694;8.940;2023-02-03T06:12:56;5.20;99.90
17671;DHT22;8954;48.694;8.940;2023-02-03T06:15:22;5.20;99.90
17671;DHT22;8954;48.694;8.940;2023-02-03T06:17:48;5.20;99.90
17671;DHT22;8954;48.694;8.940;2023-02-03T06:20:17;5.30;99.90
17671;DHT22;8954;48.694;8.940;2023-02-03T06:22:42;5.20;99.90
17671;DHT22;8954;48.694;8.940;2023-02-03T06:25:08;5.20;99.90
17671;DHT22;8954;48.694;8.940;2023-02-03T06:27:34;5.20;99.90
17671;DHT22;8954;48.694;8.940;2023-02-03T06:30:00;5.10;99.90
17671;DHT22;8954;48.694;8.940;2023-02-03T06:32:26;5.10;99.90
17671;DHT22;8954;48.694;8.940;2023-02-03T06:34:51;5.10;99.90
17671;DHT22;8954;48.694;8.940;2023-02-03T06:37:17;5.10;99.90
17671;DHT22;8954;48.694;8.940;2023-02-03T06:39:43;5.20;99.90
17671;DHT22;8954;48.694;8.940;2023-02-03T06:42:08;5.30;99.90
17671;DHT22;8954;48.694;8.940;2023-02-03T06:44:34;5.30;99.90
17671;DHT22;8954;48.694;8.940;2023-02-03T06:47:00;5.20;99.90
17671;DHT22;8954;48.694;8.940;2023-02-03T06:49:28;5.10;99.90
17671;DHT22;8954;48.694;8.940;2023-02-03T06:51:54;5.10;99.90
17671;DHT22;8954;48.694;8.940;2023-02-03T06:54:19;5.20;99.90
17671;DHT22;8954;48.694;8.940;2023-02-03T06:56:45;5.20;99.90
17671;DHT22;8954;48.694;8.940;2023-02-03T06:59:11;5.20;99.90
17671;DHT22;8954;48.694;8.940;2023-02-03T07:01:37;5.10;99.90
17671;DHT22;8954;48.694;8.940;2023-02-03T07:04:03;5.00;99.90
17671;DHT22;8954;48.694;8.940;2023-02-03T07:06:29;5.00;99.90
17671;DHT22;8954;48.694;8.940;2023-02-03T07:08:57;5.00;99.90
17671;DHT22;8954;48.694;8.940;2023-02-03T07:11:23;4.90;99.90
17671;DHT22;8954;48.694;8.940;2023-02-03T07:13:50;4.70;99.90
17671;DHT22;8954;48.694;8.940;2023-02-03T07:16:16;4.70;99.90
17671;DHT22;8954;48.694;8.940;2023-02-03T07:18:41;4.70;99.90
17671;DHT22;8954;48.694;8.940;2023-02-03T07:21:07;4.60;99.90
17671;DHT22;8954;48.694;8.940;2023-02-03T07:23:33;4.50;99.90
17671;DHT22;8954;48.694;8.940;2023-02-03T07:25:59;4.60;99.90
17671;DHT22;8954;48.694;8.940;2023-02-03T07:28:25;4.70;99.90
17671;DHT22;8954;48.694;8.940;2023-02-03T07:30:51;4.80;99.90
17671;DHT22;8954;48.694;8.940;2023-02-03T07:33:16;4.60;99.90
17671;DHT22;8954;48.694;8.940;2023-02-03T07:35:42;4.60;99.90
17671;DHT22;8954;48.694;8.940;2023-02-03T07:38:08;4.50;99.90
17671;DHT22;8954;48.694;8.940;2023-02-03T07:40:33;4.60;99.90
17671;DHT22;8954;48.694;8.940;2023-02-03T07:42:59;4.60;99.90
17671;DHT22;8954;48.694;8.940;2023-02-03T07:45:25;4.80;99.90
17671;DHT22;8954;48.694;8.940;2023-02-03T07:47:50;5.00;99.90
17671;DHT22;8954;48.694;8.940;2023-02-03T07:50:16;5.00;99.90
17671;DHT22;8954;48.694;8.940;2023-02-03T07:52:42;5.10;99.90
17671;DHT22;8954;48.694;8.940;2023-02-03T07:55:08;5.10;99.90
17671;DHT22;8954;48.694;8.940;2023-02-03T07:57:34;5.00;99.90
17671;DHT22;8954;48.694;8.940;2023-02-03T08:00:02;5.00;99.90
17671;DHT22;8954;48.694;8.940;2023-02-03T08:02:28;4.90;99.90
17671;DHT22;8954;48.694;8.940;2023-02-03T08:04:53;4.80;99.90
17671;DHT22;8954;48.694;8.940;2023-02-03T08:07:22;4.80;99.90
17671;DHT22;8954;48.694;8.940;2023-02-03T08:09:47;4.80;99.90
17671;DHT22;8954;48.694;8.940;2023-02-03T08:12:13;4.70;99.90
17671;DHT22;8954;48.694;8.940;2023-02-03T08:14:40;4.70;99.90
17671;DHT22;8954;48.694;8.940;2023-02-03T08:17:05;4.80;99.90
17671;DHT22;8954;48.694;8.940;2023-02-03T08:19:31;4.90;99.90
17671;DHT22;8954;48.694;8.940;2023-02-03T08:21:56;4.80;99.90
17671;DHT22;8954;48.694;8.940;2023-02-03T08:24:23;5.00;99.90
17671;DHT22;8954;48.694;8.940;2023-02-03T08:26:49;5.10;99.90
17671;DHT22;8954;48.694;8.940;2023-02-03T08:29:14;5.10;99.90
17671;DHT22;8954;48.694;8.940;2023-02-03T08:31:43;5.20;99.90
17671;DHT22;8954;48.694;8.940;2023-02-03T08:34:09;5.30;99.90
17671;DHT22;8954;48.694;8.940;2023-02-03T08:36:34;5.40;99.90
17671;DHT22;8954;48.694;8.940;2023-02-03T08:39:03;5.30;99.90
17671;DHT22;8954;48.694;8.940;2023-02-03T08:41:29;5.30;99.90
17671;DHT22;8954;48.694;8.940;2023-02-03T08:43:54;5.20;99.90
17671;DHT22;8954;48.694;8.940;2023-02-03T08:46:20;5.40;99.90
17671;DHT22;8954;48.694;8.940;2023-02-03T08:48:46;5.40;99.90
17671;DHT22;8954;48.694;8.940;2023-02-03T08:51:13;5.30;99.90
17671;DHT22;8954;48.694;8.940;2023-02-03T08:53:39;5.40;99.90
17671;DHT22;8954;48.694;8.940;2023-02-03T08:56:06;5.60;99.90
17671;DHT22;8954;48.694;8.940;2023-02-03T08:58:32;5.80;99.90
17671;DHT22;8954;48.694;8.940;2023-02-03T09:01:09;6.10;99.90
17671;DHT22;8954;48.694;8.940;2023-02-03T09:03:36;6.10;99.90
17671;DHT22;8954;48.694;8.940;2023-02-03T09:06:02;6.10;99.90
17671;DHT22;8954;48.694;8.940;2023-02-03T09:08:28;6.00;99.90
17671;DHT22;8954;48.694;8.940;2023-02-03T09:10:54;6.10;99.90
17671;DHT22;8954;48.694;8.940;2023-02-03T09:13:20;6.10;99.90
17671;DHT22;8954;48.694;8.940;2023-02-03T09:15:45;6.10;99.90
17671;DHT22;8954;48.694;8.940;2023-02-03T09:18:11;6.00;99.90
17671;DHT22;8954;48.694;8.940;2023-02-03T09:20:36;5.90;99.90
17671;DHT22;8954;48.694;8.940;2023-02-03T09:23:02;5.80;99.90
17671;DHT22;8954;48.694;8.940;2023-02-03T09:25:28;6.10;99.90
17671;DHT22;8954;48.694;8.940;2023-02-03T09:27:53;6.40;99.90
17671;DHT22;8954;48.694;8.940;2023-02-03T09:30:19;6.60;99.90
17671;DHT22;8954;48.694;8.940;2023-02-03T09:32:44;6.80;99.90
17671;DHT22;8954;48.694;8.940;2023-02-03T09:35:13;6.80;99.90
17671;DHT22;8954;48.694;8.940;2023-02-03T09:37:39;7.00;99.90
17671;DHT22;8954;48.694;8.940;2023-02-03T09:40:05;7.20;99.90
17671;DHT22;8954;48.694;8.940;2023-02-03T09:47:42;7.20;99.90
17671;DHT22;8954;48.694;8.940;2023-02-03T09:50:18;6.80;99.90
17671;DHT22;8954;48.694;8.940;2023-02-03T09:52:45;7.10;99.90
17671;DHT22;8954;48.694;8.940;2023-02-03T10:00:29;7.20;99.90
17671;DHT22;8954;48.694;8.940;2023-02-03T10:03:06;7.40;99.90
17671;DHT22;8954;48.694;8.940;2023-02-03T10:13:57;7.30;99.90
17671;DHT22;8954;48.694;8.940;2023-02-03T10:16:37;7.50;99.90
17671;DHT22;8954;48.694;8.940;2023-02-03T10:19:14;7.30;99.90
17671;DHT22;8954;48.694;8.940;2023-02-03T10:21:46;7.40;99.90
17671;DHT22;8954;48.694;8.940;2023-02-03T10:24:18;7.30;99.90
17671;DHT22;8954;48.694;8.940;2023-02-03T10:26:44;7.20;99.90
17671;DHT22;8954;48.694;8.940;2023-02-03T10:29:43;7.20;99.90
17671;DHT22;8954;48.694;8.940;2023-02-03T10:32:11;7.30;99.90
17671;DHT22;8954;48.694;8.940;2023-02-03T10:34:37;7.10;99.90
17671;DHT22;8954;48.694;8.940;2023-02-03T10:37:16;7.40;99.90
17671;DHT22;8954;48.694;8.940;2023-02-03T10:39:50;7.60;99.90
17671;DHT22;8954;48.694;8.940;2023-02-03T10:42:16;7.70;99.90
17671;DHT22;8954;48.694;8.940;2023-02-03T10:44:51;7.80;99.90
17671;DHT22;8954;48.694;8.940;2023-02-03T10:49:54;8.10;99.90
17671;DHT22;8954;48.694;8.940;2023-02-03T10:52:32;8.10;99.90
17671;DHT22;8954;48.694;8.940;2023-02-03T10:55:03;8.00;99.90
17671;DHT22;8954;48.694;8.940;2023-02-03T10:57:29;8.00;99.90
17671;DHT22;8954;48.694;8.940;2023-02-03T11:00:07;7.80;99.90
17671;DHT22;8954;48.694;8.940;2023-02-03T11:02:44;7.70;99.90
17671;DHT22;8954;48.694;8.940;2023-02-03T11:05:17;7.90;99.90
17671;DHT22;8954;48.694;8.940;2023-02-03T11:07:43;7.70;99.90
17671;DHT22;8954;48.694;8.940;2023-02-03T11:10:37;8.00;99.90
17671;DHT22;8954;48.694;8.940;2023-02-03T11:20:58;7.60;99.90
17671;DHT22;8954;48.694;8.940;2023-02-03T11:23:24;7.80;99.90
17671;DHT22;8954;48.694;8.940;2023-02-03T11:25:50;8.10;99.90
17671;DHT22;8954;48.694;8.940;2023-02-03T11:28:16;8.10;99.90
17671;DHT22;8954;48.694;8.940;2023-02-03T11:30:42;8.10;99.90
17671;DHT22;8954;48.694;8.940;2023-02-03T11:33:28;8.20;99.90
17671;DHT22;8954;48.694;8.940;2023-02-03T11:35:58;8.40;99.90
17671;DHT22;8954;48.694;8.940;2023-02-03T11:38:32;8.40;99.90
17671;DHT22;8954;48.694;8.940;2023-02-03T11:41:01;8.20;99.90
17671;DHT22;8954;48.694;8.940;2023-02-03T11:43:27;8.00;99.90
17671;DHT22;8954;48.694;8.940;2023-02-03T11:46:02;7.80;99.90
17671;DHT22;8954;48.694;8.940;2023-02-03T11:48:31;7.70;99.90
17671;DHT22;8954;48.694;8.940;2023-02-03T11:54:18;7.90;99.90
17671;DHT22;8954;48.694;8.940;2023-02-03T12:00:21;8.00;99.90
17671;DHT22;8954;48.694;8.940;2023-02-03T12:11:03;8.00;99.90
17671;DHT22;8954;48.694;8.940;2023-02-03T12:16:32;8.10;99.90
17671;DHT22;8954;48.694;8.940;2023-02-03T12:21:55;7.90;99.90
17671;DHT22;8954;48.694;8.940;2023-02-03T12:24:45;7.80;99.90
17671;DHT22;8954;48.694;8.940;2023-02-03T12:30:11;8.40;99.90
17671;DHT22;8954;48.694;8.940;2023-02-03T12:32:43;8.30;99.90
17671;DHT22;8954;48.694;8.940;2023-02-03T12:37:49;8.40;99.90
17671;DHT22;8954;48.694;8.940;2023-02-03T12:40:35;8.50;99.90
17671;DHT22;8954;48.694;8.940;2023-02-03T12:48:51;7.90;99.90
17671;DHT22;8954;48.694;8.940;2023-02-03T13:05:41;8.00;99.90
17671;DHT22;8954;48.694;8.940;2023-02-03T13:08:28;7.90;99.90
17671;DHT22;8954;48.694;8.940;2023-02-03T13:13:43;7.90;99.90
17671;DHT22;8954;48.694;8.940;2023-02-03T13:16:12;8.00;99.90
17671;DHT22;8954;48.694;8.940;2023-02-03T13:18:42;8.00;99.90
17671;DHT22;8954;48.694;8.940;2023-02-03T13:21:10;7.90;99.90
17671;DHT22;8954;48.694;8.940;2023-02-03T13:23:38;8.10;99.90
17671;DHT22;8954;48.694;8.940;2023-02-03T13:32:06;8.20;99.90
17671;DHT22;8954;48.694;8.940;2023-02-03T13:40:57;8.10;99.90
17671;DHT22;8954;48.694;8.940;2023-02-03T13:43:28;8.10;99.90
17671;DHT22;8954;48.694;8.940;2023-02-03T13:45:56;8.00;99.90
17671;DHT22;8954;48.694;8.940;2023-02-03T13:48:28;8.20;99.90
17671;DHT22;8954;48.694;8.940;2023-02-03T13:51:28;8.20;99.90
17671;DHT22;8954;48.694;8.940;2023-02-03T13:54:12;8.00;99.90
17671;DHT22;8954;48.694;8.940;2023-02-03T13:56:39;8.00;99.90
17671;DHT22;8954;48.694;8.940;2023-02-03T13:59:25;7.90;99.90
17671;DHT22;8954;48.694;8.940;2023-02-03T14:10:22;7.60;99.90
17671;DHT22;8954;48.694;8.940;2023-02-03T14:15:21;7.50;99.90
17671;DHT22;8954;48.694;8.940;2023-02-03T14:23:15;7.30;99.90
17671;DHT22;8954;48.694;8.940;2023-02-03T14:25:41;7.40;99.90
17671;DHT22;8954;48.694;8.940;2023-02-03T14:28:12;7.40;99.90
17671;DHT22;8954;48.694;8.940;2023-02-03T14:36:49;7.20;99.90
17671;DHT22;8954;48.694;8.940;2023-02-03T14:39:36;7.20;99.90
17671;DHT22;8954;48.694;8.940;2023-02-03T14:53:14;6.80;99.90
17671;DHT22;8954;48.694;8.940;2023-02-03T14:58:34;6.90;99.90
17671;DHT22;8954;48.694;8.940;2023-02-03T15:01:04;6.70;99.90
17671;DHT22;8954;48.694;8.940;2023-02-03T15:03:34;6.70;99.90
17671;DHT22;8954;48.694;8.940;2023-02-03T15:06:04;6.60;99.90
17671;DHT22;8954;48.694;8.940;2023-02-03T15:08:47;6.50;99.90
17671;DHT22;8954;48.694;8.940;2023-02-03T15:11:32;6.60;99.90
17671;DHT22;8954;48.694;8.940;2023-02-03T15:17:11;6.40;99.90
17671;DHT22;8954;48.694;8.940;2023-02-03T15:19:41;6.40;99.90
17671;DHT22;8954;48.694;8.940;2023-02-03T15:22:27;6.40;99.90
17671;DHT22;8954;48.694;8.940;2023-02-03T15:25:00;6.50;99.90
17671;DHT22;8954;48.694;8.940;2023-02-03T15:27:29;6.50;99.90
17671;DHT22;8954;48.694;8.940;2023-02-03T15:29:56;6.30;99.90
17671;DHT22;8954;48.694;8.940;2023-02-03T19:08:21;6.50;99.90
17671;DHT22;8954;48.694;8.940;2023-02-03T19:10:51;6.50;99.90
17671;DHT22;8954;48.694;8.940;2023-02-03T19:13:18;6.60;99.90
17671;DHT22;8954;48.694;8.940;2023-02-03T19:15:47;6.70;99.90
17671;DHT22;8954;48.694;8.940;2023-02-03T19:18:14;6.60;99.90
17671;DHT22;8954;48.694;8.940;2023-02-03T19:20:41;6.70;99.90
17671;DHT22;8954;48.694;8.940;2023-02-03T19:23:07;6.70;99.90
17671;DHT22;8954;48.694;8.940;2023-02-03T19:25:34;6.80;99.90
17671;DHT22;8954;48.694;8.940;2023-02-03T19:28:00;6.80;99.90
17671;DHT22;8954;48.694;8.940;2023-02-03T19:30:28;6.80;99.90
17671;DHT22;8954;48.694;8.940;2023-02-03T19:32:53;6.90;99.90
17671;DHT22;8954;48.694;8.940;2023-02-03T19:35:19;7.00;99.90
17671;DHT22;8954;48.694;8.940;2023-02-03T19:37:44;7.00;99.90
17671;DHT22;8954;48.694;8.940;2023-02-03T19:40:10;7.00;99.90
17671;DHT22;8954;48.694;8.940;2023-02-03T19:42:37;6.90;99.90
17671;DHT22;8954;48.694;8.940;2023-02-03T19:45:02;6.90;99.90
17671;DHT22;8954;48.694;8.940;2023-02-03T19:47:29;6.80;99.90
17671;DHT22;8954;48.694;8.940;2023-02-03T19:49:55;6.90;99.90
17671;DHT22;8954;48.694;8.940;2023-02-03T19:52:20;7.00;99.90
17671;DHT22;8954;48.694;8.940;2023-02-03T19:54:48;6.90;99.90
17671;DHT22;8954;48.694;8.940;2023-02-03T19:57:16;6.90;99.90
17671;DHT22;8954;48.694;8.940;2023-02-03T19:59:44;6.90;99.90
17671;DHT22;8954;48.694;8.940;2023-02-03T20:02:09;6.90;99.90
17671;DHT22;8954;48.694;8.940;2023-02-03T20:04:35;6.90;99.90
17671;DHT22;8954;48.694;8.940;2023-02-03T20:07:01;6.80;99.90
17671;DHT22;8954;48.694;8.940;2023-02-03T20:09:27;6.90;99.90
17671;DHT22;8954;48.694;8.940;2023-02-03T20:11:52;6.90;99.90
17671;DHT22;8954;48.694;8.940;2023-02-03T20:14:20;6.90;99.90
17671;DHT22;8954;48.694;8.940;2023-02-03T20:16:48;6.90;99.90
17671;DHT22;8954;48.694;8.940;2023-02-03T20:19:16;6.90;99.90
17671;DHT22;8954;48.694;8.940;2023-02-03T20:21:43;6.90;99.90
